createdAt,value
2018-02-07T00:00:49.702Z,-0.17
2018-02-07T00:01:49.673Z,-0.23
2018-02-07T00:02:49.643Z,-0.21
2018-02-07T00:03:49.608Z,-0.2
2018-02-07T00:04:49.329Z,-0.21
2018-02-07T00:05:49.540Z,-0.26
2018-02-07T00:06:49.263Z,-0.34
2018-02-07T00:07:49.231Z,-0.31
2018-02-07T00:08:49.197Z,-0.34
2018-02-07T00:09:49.425Z,-0.32
2018-02-07T00:10:49.378Z,-0.34
2018-02-07T00:11:49.107Z,-0.36
2018-02-07T00:12:49.313Z,-0.35
2018-02-07T00:13:49.284Z,-0.38
2018-02-07T00:14:48.999Z,-0.41
2018-02-07T00:15:49.210Z,-0.39
2018-02-07T00:16:48.945Z,-0.43
2018-02-07T00:17:48.907Z,-0.35
2018-02-07T00:18:48.871Z,-0.41
2018-02-07T00:19:49.084Z,-0.41
2018-02-07T00:20:48.556Z,-0.36
2018-02-07T00:21:49.020Z,-0.38
2018-02-07T00:22:48.742Z,-0.44
2018-02-07T00:23:48.952Z,-0.49
2018-02-07T00:24:48.918Z,-0.36
2018-02-07T00:25:48.645Z,-0.39
2018-02-07T00:26:48.856Z,-0.38
2018-02-07T00:27:48.575Z,-0.43
2018-02-07T00:28:48.544Z,-0.39
2018-02-07T00:29:48.754Z,-0.52
2018-02-07T00:30:48.481Z,-0.47
2018-02-07T00:31:48.441Z,-0.46
2018-02-07T00:32:48.412Z,-0.52
2018-02-07T00:33:48.627Z,-0.59
2018-02-07T00:34:48.591Z,-0.52
2018-02-07T00:35:48.312Z,-0.56
2018-02-07T00:36:48.276Z,-0.61
2018-02-07T00:37:48.245Z,-0.64
2018-02-07T00:38:48.460Z,-0.5
2018-02-07T00:39:48.425Z,-0.53
2018-02-07T00:40:48.393Z,-0.56
2018-02-07T00:41:48.355Z,-0.62
2018-02-07T00:42:48.328Z,-0.53
2018-02-07T00:43:48.297Z,-0.5
2018-02-07T00:44:48.258Z,-0.54
2018-02-07T00:45:48.239Z,-0.5
2018-02-07T00:46:48.193Z,-0.59
2018-02-07T00:47:47.927Z,-0.53
2018-02-07T00:48:47.884Z,-0.61
2018-02-07T00:49:48.095Z,-0.64
2018-02-07T00:50:47.572Z,-0.59
2018-02-07T00:51:48.069Z,-0.67
2018-02-07T00:52:47.997Z,-0.61
2018-02-07T00:53:47.959Z,-0.61
2018-02-07T00:54:47.931Z,-0.65
2018-02-07T00:55:47.649Z,-0.53
2018-02-07T00:56:47.668Z,-0.65
2018-02-07T00:57:47.584Z,-0.64
2018-02-07T00:58:47.797Z,-0.53
2018-02-07T00:59:47.519Z,-0.65
2018-02-07T01:00:47.487Z,-0.52
2018-02-07T01:01:47.695Z,-0.53
2018-02-07T01:02:47.427Z,-0.49
2018-02-07T01:03:47.631Z,-0.62
2018-02-07T01:04:47.600Z,-0.65
2018-02-07T01:05:47.319Z,-0.61
2018-02-07T01:06:47.290Z,-0.61
2018-02-07T01:07:47.501Z,-0.62
2018-02-07T01:08:47.223Z,-0.65
2018-02-07T01:09:47.437Z,-0.67
2018-02-07T01:10:47.403Z,-0.61
2018-02-07T01:11:47.368Z,-0.61
2018-02-07T01:12:47.336Z,-0.49
2018-02-07T01:13:47.307Z,-0.5
2018-02-07T01:14:47.268Z,-0.54
2018-02-07T01:15:46.992Z,-0.49
2018-02-07T01:16:47.200Z,-0.52
2018-02-07T01:17:46.922Z,-0.53
2018-02-07T01:18:47.158Z,-0.64
2018-02-07T01:19:47.113Z,-0.49
2018-02-07T01:20:47.075Z,-0.5
2018-02-07T01:21:47.047Z,-0.5
2018-02-07T01:22:47.004Z,-0.52
2018-02-07T01:23:46.970Z,-0.52
2018-02-07T01:24:46.938Z,-0.46
2018-02-07T01:25:46.909Z,-0.52
2018-02-07T01:26:46.875Z,-0.41
2018-02-07T01:27:46.845Z,-0.56
2018-02-07T01:28:46.808Z,-0.52
2018-02-07T01:29:46.531Z,-0.46
2018-02-07T01:30:46.742Z,-0.52
2018-02-07T01:31:46.708Z,-0.49
2018-02-07T01:32:46.674Z,-0.52
2018-02-07T01:33:46.641Z,-0.49
2018-02-07T01:34:46.361Z,-0.5
2018-02-07T01:35:46.580Z,-0.61
2018-02-07T01:36:46.545Z,-0.64
2018-02-07T01:37:46.262Z,-0.62
2018-02-07T01:38:46.475Z,-0.61
2018-02-07T01:39:46.449Z,-0.64
2018-02-07T01:40:46.408Z,-0.62
2018-02-07T01:41:46.379Z,-0.64
2018-02-07T01:42:46.103Z,-0.59
2018-02-07T01:43:46.070Z,-0.59
2018-02-07T01:44:46.277Z,-0.62
2018-02-07T01:45:46.248Z,-0.65
2018-02-07T01:46:45.965Z,-0.56
2018-02-07T01:47:46.182Z,-0.59
2018-02-07T01:48:46.145Z,-0.59
2018-02-07T01:49:45.865Z,-0.61
2018-02-07T01:50:46.076Z,-0.67
2018-02-07T01:51:46.044Z,-0.62
2018-02-07T01:52:46.010Z,-0.64
2018-02-07T01:53:45.977Z,-0.5
2018-02-07T01:54:45.947Z,-0.56
2018-02-07T01:55:45.917Z,-0.49
2018-02-07T01:56:45.877Z,-0.5
2018-02-07T01:57:45.844Z,-0.47
2018-02-07T01:58:45.836Z,-0.53
2018-02-07T01:59:45.778Z,-0.41
2018-02-07T02:00:45.752Z,-0.41
2018-02-07T02:01:45.716Z,-0.39
2018-02-07T02:02:45.687Z,-0.32
2018-02-07T02:03:45.651Z,-0.34
2018-02-07T02:04:45.619Z,-0.43
2018-02-07T02:05:45.582Z,-0.32
2018-02-07T02:06:45.306Z,-0.35
2018-02-07T02:07:45.273Z,-0.44
2018-02-07T02:08:45.246Z,-0.46
2018-02-07T02:09:45.455Z,-0.41
2018-02-07T02:10:45.177Z,-0.35
2018-02-07T02:11:44.892Z,-0.36
2018-02-07T02:12:45.352Z,-0.35
2018-02-07T02:13:45.336Z,-0.41
2018-02-07T02:14:45.284Z,-0.47
2018-02-07T02:15:45.254Z,-0.32
2018-02-07T02:16:45.221Z,-0.31
2018-02-07T02:17:45.189Z,-0.44
2018-02-07T02:18:44.907Z,-0.32
2018-02-07T02:19:45.124Z,-0.36
2018-02-07T02:20:45.257Z,-0.36
2018-02-07T02:21:45.060Z,-0.49
2018-02-07T02:22:45.027Z,-0.49
2018-02-07T02:23:44.994Z,-0.36
2018-02-07T02:24:44.961Z,-0.36
2018-02-07T02:25:44.923Z,-0.52
2018-02-07T02:26:44.896Z,-0.38
2018-02-07T02:27:44.855Z,-0.39
2018-02-07T02:28:44.581Z,-0.38
2018-02-07T02:29:44.791Z,-0.36
2018-02-07T02:30:44.762Z,-0.38
2018-02-07T02:31:44.736Z,-0.41
2018-02-07T02:32:44.454Z,-0.38
2018-02-07T02:33:44.418Z,-0.46
2018-02-07T02:34:44.630Z,-0.46
2018-02-07T02:35:44.594Z,-0.32
2018-02-07T02:36:44.321Z,-0.44
2018-02-07T02:37:44.536Z,-0.41
2018-02-07T02:38:44.497Z,-0.35
2018-02-07T02:39:44.468Z,-0.32
2018-02-07T02:40:44.438Z,-0.34
2018-02-07T02:41:44.415Z,-0.44
2018-02-07T02:42:44.366Z,-0.49
2018-02-07T02:43:44.088Z,-0.5
2018-02-07T02:44:43.809Z,-0.56
2018-02-07T02:45:44.269Z,-0.61
2018-02-07T02:46:44.343Z,-0.61
2018-02-07T02:47:44.203Z,-0.59
2018-02-07T02:48:44.173Z,-0.61
2018-02-07T02:49:44.139Z,-0.61
2018-02-07T02:50:44.106Z,-0.64
2018-02-07T02:51:44.072Z,-0.71
2018-02-07T02:52:43.792Z,-0.68
2018-02-07T02:53:44.014Z,-0.61
2018-02-07T02:54:43.985Z,-0.65
2018-02-07T02:55:43.940Z,-0.65
2018-02-07T02:56:43.908Z,-0.67
2018-02-07T02:57:43.627Z,-0.68
2018-02-07T02:58:43.842Z,-0.65
2018-02-07T02:59:43.808Z,-0.67
2018-02-07T03:00:43.527Z,-0.68
2018-02-07T03:01:43.749Z,-0.7
2018-02-07T03:02:43.706Z,-0.67
2018-02-07T03:03:43.672Z,-0.71
2018-02-07T03:04:43.433Z,-0.64
2018-02-07T03:05:43.605Z,-0.68
2018-02-07T03:06:43.582Z,-0.77
2018-02-07T03:07:43.547Z,-0.74
2018-02-07T03:08:43.016Z,-0.65
2018-02-07T03:09:43.477Z,-0.71
2018-02-07T03:10:43.201Z,-0.71
2018-02-07T03:11:43.409Z,-0.67
2018-02-07T03:12:43.131Z,-0.71
2018-02-07T03:13:43.104Z,-0.72
2018-02-07T03:14:43.308Z,-0.7
2018-02-07T03:15:43.278Z,-0.62
2018-02-07T03:16:43.000Z,-0.7
2018-02-07T03:17:43.311Z,-0.67
2018-02-07T03:18:43.219Z,-0.8
2018-02-07T03:19:43.145Z,-0.74
2018-02-07T03:20:43.113Z,-0.74
2018-02-07T03:21:43.160Z,-0.77
2018-02-07T03:22:43.044Z,-0.78
2018-02-07T03:23:43.012Z,-0.72
2018-02-07T03:24:42.729Z,-0.78
2018-02-07T03:25:42.940Z,-0.8
2018-02-07T03:26:42.419Z,-0.83
2018-02-07T03:27:42.885Z,-0.85
2018-02-07T03:28:42.843Z,-0.85
2018-02-07T03:29:42.565Z,-0.9
2018-02-07T03:30:42.780Z,-0.9
2018-02-07T03:31:42.749Z,-0.85
2018-02-07T03:32:42.462Z,-0.94
2018-02-07T03:33:42.435Z,-0.93
2018-02-07T03:34:42.152Z,-0.85
2018-02-07T03:35:42.370Z,-0.89
2018-02-07T03:36:42.580Z,-0.89
2018-02-07T03:37:42.302Z,-0.9
2018-02-07T03:38:42.265Z,-0.89
2018-02-07T03:39:42.478Z,-0.85
2018-02-07T03:40:42.444Z,-0.85
2018-02-07T03:41:42.410Z,-0.85
2018-02-07T03:42:42.380Z,-0.85
2018-02-07T03:43:42.344Z,-0.89
2018-02-07T03:44:42.308Z,-0.94
2018-02-07T03:45:42.278Z,-0.89
2018-02-07T03:46:42.243Z,-0.83
2018-02-07T03:47:42.208Z,-0.83
2018-02-07T03:48:42.181Z,-0.89
2018-02-07T03:49:42.145Z,-0.8
2018-02-07T03:50:42.110Z,-0.77
2018-02-07T03:51:42.081Z,-0.78
2018-02-07T03:52:42.048Z,-0.82
2018-02-07T03:53:41.767Z,-0.71
2018-02-07T03:54:41.975Z,-0.75
2018-02-07T03:55:41.700Z,-0.82
2018-02-07T03:56:41.915Z,-0.74
2018-02-07T03:57:41.635Z,-0.83
2018-02-07T03:58:41.598Z,-0.74
2018-02-07T03:59:41.566Z,-0.8
2018-02-07T04:00:41.783Z,-0.78
2018-02-07T04:01:41.746Z,-0.77
2018-02-07T04:02:41.720Z,-0.83
2018-02-07T04:03:41.684Z,-0.82
2018-02-07T04:04:41.704Z,-0.85
2018-02-07T04:05:41.612Z,-0.77
2018-02-07T04:06:41.578Z,-0.85
2018-02-07T04:07:41.560Z,-0.89
2018-02-07T04:08:41.516Z,-0.86
2018-02-07T04:09:41.476Z,-0.77
2018-02-07T04:10:41.450Z,-0.78
2018-02-07T04:11:41.492Z,-0.85
2018-02-07T04:12:41.136Z,-0.8
2018-02-07T04:13:41.101Z,-0.74
2018-02-07T04:14:41.316Z,-0.75
2018-02-07T04:15:41.040Z,-0.74
2018-02-07T04:16:41.265Z,-0.75
2018-02-07T04:17:41.219Z,-0.83
2018-02-07T04:18:41.179Z,-0.8
2018-02-07T04:19:41.150Z,-0.72
2018-02-07T04:20:40.624Z,-0.78
2018-02-07T04:21:40.589Z,-0.74
2018-02-07T04:22:40.803Z,-0.78
2018-02-07T04:23:41.014Z,-0.74
2018-02-07T04:24:41.000Z,-0.78
2018-02-07T04:25:40.949Z,-0.82
2018-02-07T04:26:40.430Z,-0.8
2018-02-07T04:27:40.885Z,-0.77
2018-02-07T04:28:40.607Z,-0.75
2018-02-07T04:29:40.569Z,-0.78
2018-02-07T04:30:40.539Z,-0.71
2018-02-07T04:31:40.748Z,-0.75
2018-02-07T04:32:40.719Z,-0.82
2018-02-07T04:33:40.688Z,-0.75
2018-02-07T04:34:40.649Z,-0.7
2018-02-07T04:35:40.619Z,-0.82
2018-02-07T04:36:40.342Z,-0.71
2018-02-07T04:37:40.555Z,-0.74
2018-02-07T04:38:40.513Z,-0.71
2018-02-07T04:39:40.486Z,-0.7
2018-02-07T04:40:40.453Z,-0.77
2018-02-07T04:41:40.415Z,-0.74
2018-02-07T04:42:40.136Z,-0.77
2018-02-07T04:43:40.354Z,-0.77
2018-02-07T04:44:40.316Z,-0.78
2018-02-07T04:45:40.284Z,-0.82
2018-02-07T04:46:39.759Z,-0.77
2018-02-07T04:47:39.728Z,-0.82
2018-02-07T04:48:39.937Z,-0.82
2018-02-07T04:49:40.146Z,-0.75
2018-02-07T04:50:40.118Z,-0.77
2018-02-07T04:51:39.839Z,-0.82
2018-02-07T04:52:40.054Z,-0.82
2018-02-07T04:53:40.019Z,-0.72
2018-02-07T04:54:39.739Z,-0.8
2018-02-07T04:55:39.704Z,-0.82
2018-02-07T04:56:39.916Z,-0.85
2018-02-07T04:57:39.641Z,-0.74
2018-02-07T04:58:39.608Z,-0.68
2018-02-07T04:59:39.827Z,-0.74
2018-02-07T05:00:39.783Z,-0.78
2018-02-07T05:01:39.754Z,-0.77
2018-02-07T05:02:39.723Z,-0.78
2018-02-07T05:03:39.686Z,-0.75
2018-02-07T05:04:39.162Z,-0.78
2018-02-07T05:05:39.375Z,-0.72
2018-02-07T05:06:39.587Z,-0.8
2018-02-07T05:07:39.551Z,-0.86
2018-02-07T05:08:39.522Z,-0.82
2018-02-07T05:09:39.485Z,-0.82
2018-02-07T05:10:39.453Z,-0.93
2018-02-07T05:11:39.419Z,-0.85
2018-02-07T05:12:39.539Z,-0.83
2018-02-07T05:13:38.862Z,-0.9
2018-02-07T05:14:39.424Z,-0.83
2018-02-07T05:15:39.041Z,-0.86
2018-02-07T05:16:39.252Z,-0.96
2018-02-07T05:17:39.216Z,-0.97
2018-02-07T05:18:39.189Z,-0.96
2018-02-07T05:19:39.154Z,-0.96
2018-02-07T05:20:39.116Z,-0.96
2018-02-07T05:21:38.836Z,-0.94
2018-02-07T05:22:38.808Z,-0.97
2018-02-07T05:23:38.771Z,-0.94
2018-02-07T05:24:38.740Z,-0.96
2018-02-07T05:25:38.707Z,-0.9
2018-02-07T05:26:38.672Z,-1.01
2018-02-07T05:27:38.697Z,-1.02
2018-02-07T05:28:38.607Z,-1.05
2018-02-07T05:29:38.817Z,-1.05
2018-02-07T05:30:38.784Z,-1.07
2018-02-07T05:31:38.752Z,-1.08
2018-02-07T05:32:38.716Z,-1.02
2018-02-07T05:33:38.736Z,-1.05
2018-02-07T05:34:38.404Z,-1.17
2018-02-07T05:35:38.371Z,-1.11
2018-02-07T05:36:38.583Z,-1.15
2018-02-07T05:37:38.552Z,-1.08
2018-02-07T05:38:38.520Z,-1.19
2018-02-07T05:39:38.483Z,-1.12
2018-02-07T05:40:38.448Z,-1.14
2018-02-07T05:41:38.416Z,-1.22
2018-02-07T05:42:38.140Z,-1.29
2018-02-07T05:43:38.352Z,-1.17
2018-02-07T05:44:38.312Z,-1.22
2018-02-07T05:45:38.032Z,-1.22
2018-02-07T05:46:38.250Z,-1.29
2018-02-07T05:47:37.969Z,-1.26
2018-02-07T05:48:38.185Z,-1.27
2018-02-07T05:49:38.145Z,-1.3
2018-02-07T05:50:37.867Z,-1.25
2018-02-07T05:51:38.077Z,-1.3
2018-02-07T05:52:38.046Z,-1.35
2018-02-07T05:53:37.762Z,-1.33
2018-02-07T05:54:37.731Z,-1.25
2018-02-07T05:55:37.698Z,-1.27
2018-02-07T05:56:37.910Z,-1.4
2018-02-07T05:57:37.876Z,-1.46
2018-02-07T05:58:37.596Z,-1.37
2018-02-07T05:59:37.812Z,-1.38
2018-02-07T06:00:37.773Z,-1.3
2018-02-07T06:01:37.742Z,-1.4
2018-02-07T06:02:37.706Z,-1.29
2018-02-07T06:03:37.671Z,-1.32
2018-02-07T06:04:37.640Z,-1.3
2018-02-07T06:05:37.612Z,-1.4
2018-02-07T06:06:37.324Z,-1.35
2018-02-07T06:07:37.539Z,-1.37
2018-02-07T06:08:37.509Z,-1.25
2018-02-07T06:09:37.225Z,-1.3
2018-02-07T06:10:37.439Z,-1.3
2018-02-07T06:11:37.404Z,-1.26
2018-02-07T06:12:37.366Z,-1.3
2018-02-07T06:13:37.333Z,-1.25
2018-02-07T06:14:37.357Z,-1.29
2018-02-07T06:15:37.268Z,-1.43
2018-02-07T06:16:37.231Z,-1.41
2018-02-07T06:17:36.951Z,-1.41
2018-02-07T06:18:37.167Z,-1.44
2018-02-07T06:19:37.130Z,-1.38
2018-02-07T06:20:37.101Z,-1.37
2018-02-07T06:21:37.084Z,-1.38
2018-02-07T06:22:37.029Z,-1.35
2018-02-07T06:23:36.997Z,-1.29
2018-02-07T06:24:36.960Z,-1.46
2018-02-07T06:25:36.931Z,-1.29
2018-02-07T06:26:36.898Z,-1.35
2018-02-07T06:27:36.367Z,-1.38
2018-02-07T06:28:36.828Z,-1.38
2018-02-07T06:29:36.549Z,-1.41
2018-02-07T06:30:36.764Z,-1.33
2018-02-07T06:31:36.727Z,-1.32
2018-02-07T06:32:36.694Z,-1.4
2018-02-07T06:33:36.413Z,-1.43
2018-02-07T06:34:36.625Z,-1.4
2018-02-07T06:35:36.349Z,-1.38
2018-02-07T06:36:36.557Z,-1.4
2018-02-07T06:37:36.530Z,-1.37
2018-02-07T06:38:36.489Z,-1.33
2018-02-07T06:39:36.456Z,-1.4
2018-02-07T06:40:36.419Z,-1.33
2018-02-07T06:41:36.390Z,-1.41
2018-02-07T06:42:35.859Z,-1.47
2018-02-07T06:43:36.316Z,-1.47
2018-02-07T06:44:36.279Z,-1.53
2018-02-07T06:45:36.007Z,-1.51
2018-02-07T06:46:35.974Z,-1.47
2018-02-07T06:47:36.186Z,-1.48
2018-02-07T06:48:35.904Z,-1.44
2018-02-07T06:49:36.112Z,-1.41
2018-02-07T06:50:36.075Z,-1.5
2018-02-07T06:51:35.803Z,-1.44
2018-02-07T06:52:36.144Z,-1.33
2018-02-07T06:53:35.728Z,-1.32
2018-02-07T06:54:35.945Z,-1.47
2018-02-07T06:55:35.425Z,-1.38
2018-02-07T06:56:35.874Z,-1.4
2018-02-07T06:57:35.840Z,-1.41
2018-02-07T06:58:35.561Z,-1.37
2018-02-07T06:59:35.529Z,-1.37
2018-02-07T07:00:36.071Z,-1.41
2018-02-07T07:01:35.769Z,-1.41
2018-02-07T07:02:35.672Z,-1.4
2018-02-07T07:03:35.642Z,-1.4
2018-02-07T07:04:35.608Z,-1.37
2018-02-07T07:05:35.572Z,-1.4
2018-02-07T07:06:35.291Z,-1.44
2018-02-07T07:07:35.504Z,-1.41
2018-02-07T07:08:35.467Z,-1.46
2018-02-07T07:09:35.188Z,-1.38
2018-02-07T07:10:35.403Z,-1.47
2018-02-07T07:11:35.373Z,-1.53
2018-02-07T07:12:35.329Z,-1.5
2018-02-07T07:13:35.308Z,-1.43
2018-02-07T07:14:35.260Z,-1.4
2018-02-07T07:15:34.985Z,-1.48
2018-02-07T07:16:34.952Z,-1.5
2018-02-07T07:17:35.160Z,-1.47
2018-02-07T07:18:35.127Z,-1.48
2018-02-07T07:19:34.850Z,-1.46
2018-02-07T07:20:34.569Z,-1.46
2018-02-07T07:21:35.025Z,-1.46
2018-02-07T07:22:34.751Z,-1.53
2018-02-07T07:23:34.957Z,-1.41
2018-02-07T07:24:34.926Z,-1.47
2018-02-07T07:25:34.891Z,-1.46
2018-02-07T07:26:34.613Z,-1.46
2018-02-07T07:27:34.822Z,-1.46
2018-02-07T07:28:34.794Z,-1.51
2018-02-07T07:29:34.759Z,-1.44
2018-02-07T07:30:34.475Z,-1.44
2018-02-07T07:31:34.443Z,-1.53
2018-02-07T07:32:34.412Z,-1.43
2018-02-07T07:33:34.616Z,-1.5
2018-02-07T07:34:34.588Z,-1.47
2018-02-07T07:35:34.556Z,-1.35
2018-02-07T07:36:34.527Z,-1.4
2018-02-07T07:37:34.489Z,-1.4
2018-02-07T07:38:34.206Z,-1.33
2018-02-07T07:39:34.421Z,-1.33
2018-02-07T07:40:34.382Z,-1.35
2018-02-07T07:41:34.350Z,-1.35
2018-02-07T07:42:34.317Z,-1.37
2018-02-07T07:43:34.279Z,-1.33
2018-02-07T07:44:34.251Z,-1.3
2018-02-07T07:45:33.968Z,-1.26
2018-02-07T07:46:34.177Z,-1.3
2018-02-07T07:47:34.152Z,-1.29
2018-02-07T07:48:34.118Z,-1.25
2018-02-07T07:49:34.081Z,-1.37
2018-02-07T07:50:34.047Z,-1.37
2018-02-07T07:51:33.772Z,-1.41
2018-02-07T07:52:33.732Z,-1.33
2018-02-07T07:53:33.701Z,-1.33
2018-02-07T07:54:33.665Z,-1.35
2018-02-07T07:55:33.880Z,-1.38
2018-02-07T07:56:33.846Z,-1.32
2018-02-07T07:57:33.812Z,-1.44
2018-02-07T07:58:33.784Z,-1.35
2018-02-07T07:59:33.499Z,-1.32
2018-02-07T08:00:33.712Z,-1.33
2018-02-07T08:01:33.677Z,-1.38
2018-02-07T08:02:33.646Z,-1.4
2018-02-07T08:03:33.610Z,-1.4
2018-02-07T08:04:33.576Z,-1.43
2018-02-07T08:05:33.296Z,-1.38
2018-02-07T08:06:33.508Z,-1.37
2018-02-07T08:07:33.477Z,-1.37
2018-02-07T08:08:33.193Z,-1.37
2018-02-07T08:09:33.413Z,-1.44
2018-02-07T08:10:33.128Z,-1.38
2018-02-07T08:11:33.340Z,-1.3
2018-02-07T08:12:33.307Z,-1.4
2018-02-07T08:13:33.272Z,-1.4
2018-02-07T08:14:33.240Z,-1.32
2018-02-07T08:15:33.208Z,-1.32
2018-02-07T08:16:33.178Z,-1.3
2018-02-07T08:17:33.140Z,-1.26
2018-02-07T08:18:33.106Z,-1.3
2018-02-07T08:19:33.072Z,-1.32
2018-02-07T08:20:33.093Z,-1.35
2018-02-07T08:21:33.004Z,-1.27
2018-02-07T08:22:32.974Z,-1.33
2018-02-07T08:23:32.943Z,-1.35
2018-02-07T08:24:32.942Z,-1.43
2018-02-07T08:25:32.634Z,-1.32
2018-02-07T08:26:32.841Z,-1.26
2018-02-07T08:27:32.563Z,-1.26
2018-02-07T08:28:32.776Z,-1.25
2018-02-07T08:29:32.739Z,-1.27
2018-02-07T08:30:32.716Z,-1.2
2018-02-07T08:31:32.429Z,-1.17
2018-02-07T08:32:32.641Z,-1.17
2018-02-07T08:33:32.364Z,-1.17
2018-02-07T08:34:32.332Z,-1.15
2018-02-07T08:35:32.541Z,-1.11
2018-02-07T08:36:32.513Z,-1.12
2018-02-07T08:37:32.533Z,-1.11
2018-02-07T08:38:32.439Z,-1.12
2018-02-07T08:39:32.404Z,-1.12
2018-02-07T08:40:32.378Z,-1.17
2018-02-07T08:41:32.351Z,-1.14
2018-02-07T08:42:32.063Z,-1.11
2018-02-07T08:43:32.276Z,-1.15
2018-02-07T08:44:32.245Z,-1.14
2018-02-07T08:45:32.216Z,-1.17
2018-02-07T08:46:32.180Z,-1.14
2018-02-07T08:47:32.151Z,-1.05
2018-02-07T08:48:32.317Z,-1.14
2018-02-07T08:49:31.883Z,-1.11
2018-02-07T08:50:32.056Z,-1.04
2018-02-07T08:51:31.768Z,-1.04
2018-02-07T08:52:31.730Z,-1.07
2018-02-07T08:53:31.945Z,-1.02
2018-02-07T08:54:31.668Z,-1.01
2018-02-07T08:55:31.951Z,-1.02
2018-02-07T08:56:31.844Z,-0.91
2018-02-07T08:57:31.568Z,-0.96
2018-02-07T08:58:32.026Z,-1.04
2018-02-07T08:59:31.747Z,-0.97
2018-02-07T09:00:31.470Z,-0.96
2018-02-07T09:01:31.685Z,-0.91
2018-02-07T09:02:31.654Z,-0.93
2018-02-07T09:03:31.717Z,-0.99
2018-02-07T09:04:31.340Z,-0.94
2018-02-07T09:05:31.307Z,-0.96
2018-02-07T09:06:31.521Z,-0.83
2018-02-07T09:07:31.244Z,-0.89
2018-02-07T09:08:31.458Z,-0.86
2018-02-07T09:09:31.474Z,-0.82
2018-02-07T09:10:31.394Z,-0.8
2018-02-07T09:11:31.111Z,-0.78
2018-02-07T09:12:31.324Z,-0.77
2018-02-07T09:13:31.042Z,-0.75
2018-02-07T09:14:31.017Z,-0.74
2018-02-07T09:15:31.235Z,-0.77
2018-02-07T09:16:31.193Z,-0.68
2018-02-07T09:17:31.166Z,-0.72
2018-02-07T09:18:30.884Z,-0.75
2018-02-07T09:19:30.628Z,-0.78
2018-02-07T09:20:31.059Z,-0.71
2018-02-07T09:21:31.112Z,-0.71
2018-02-07T09:22:30.994Z,-0.74
2018-02-07T09:23:31.095Z,-0.8
2018-02-07T09:24:31.589Z,-0.71
2018-02-07T09:25:30.763Z,-0.71
2018-02-07T09:26:30.972Z,-0.71
2018-02-07T09:27:30.590Z,-0.47
2018-02-07T09:28:30.799Z,-0.65
2018-02-07T09:29:30.765Z,-0.57
2018-02-07T09:30:30.735Z,-0.49
2018-02-07T09:31:30.711Z,-0.46
2018-02-07T09:32:30.424Z,-0.54
2018-02-07T09:33:30.392Z,-0.54
2018-02-07T09:34:30.605Z,-0.53
2018-02-07T09:35:30.572Z,-0.5
2018-02-07T09:36:30.544Z,-0.41
2018-02-07T09:37:30.504Z,-0.32
2018-02-07T09:38:30.523Z,-0.38
2018-02-07T09:39:30.447Z,-0.43
2018-02-07T09:40:30.166Z,-0.47
2018-02-07T09:41:30.385Z,-0.49
2018-02-07T09:42:30.100Z,-0.49
2018-02-07T09:43:30.318Z,-0.56
2018-02-07T09:44:29.797Z,-0.54
2018-02-07T09:45:30.252Z,-0.49
2018-02-07T09:46:30.215Z,-0.53
2018-02-07T09:47:30.360Z,-0.53
2018-02-07T09:48:29.912Z,-0.53
2018-02-07T09:49:29.878Z,-0.56
2018-02-07T09:50:29.854Z,-0.56
2018-02-07T09:51:29.864Z,-0.61
2018-02-07T09:52:29.785Z,-0.52
2018-02-07T09:53:29.870Z,-0.57
2018-02-07T09:54:29.960Z,-0.52
2018-02-07T09:55:29.929Z,-0.52
2018-02-07T09:56:29.647Z,-0.53
2018-02-07T09:57:29.617Z,-0.49
2018-02-07T09:58:29.490Z,-0.5
2018-02-07T09:59:29.306Z,-0.44
2018-02-07T10:00:29.760Z,-0.54
2018-02-07T10:01:29.732Z,-0.5
2018-02-07T10:02:29.703Z,-0.49
2018-02-07T10:03:29.665Z,-0.47
2018-02-07T10:04:29.394Z,-0.47
2018-02-07T10:05:29.602Z,-0.52
2018-02-07T10:06:29.568Z,-0.5
2018-02-07T10:07:29.389Z,-0.47
2018-02-07T10:08:29.263Z,-0.38
2018-02-07T10:09:29.230Z,-0.32
2018-02-07T10:10:29.197Z,-0.41
2018-02-07T10:11:29.169Z,-0.39
2018-02-07T10:12:29.377Z,-0.34
2018-02-07T10:13:29.121Z,-0.34
2018-02-07T10:14:29.069Z,-0.41
2018-02-07T10:15:29.284Z,-0.41
2018-02-07T10:16:29.252Z,-0.38
2018-02-07T10:17:29.601Z,-0.28
2018-02-07T10:18:28.692Z,-0.28
2018-02-07T10:19:28.662Z,-0.23
2018-02-07T10:20:29.123Z,-0.23
2018-02-07T10:21:28.839Z,-0.11
2018-02-07T10:22:28.809Z,-0.03
2018-02-07T10:23:29.020Z,-0.08
2018-02-07T10:24:28.998Z,-0.13
2018-02-07T10:25:28.962Z,-0.18
2018-02-07T10:26:28.434Z,-0.08
2018-02-07T10:27:28.896Z,-0.13
2018-02-07T10:28:28.625Z,-0.15
2018-02-07T10:29:28.339Z,-0.21
2018-02-07T10:30:28.605Z,-0.1
2018-02-07T10:31:28.525Z,-0.06
2018-02-07T10:32:28.487Z,-0.08
2018-02-07T10:33:28.700Z,0.04
2018-02-07T10:34:28.673Z,0.05
2018-02-07T10:35:28.637Z,0.08
2018-02-07T10:36:28.363Z,0
2018-02-07T10:37:28.579Z,0
2018-02-07T10:38:28.541Z,0
2018-02-07T10:39:28.273Z,0.01
2018-02-07T10:40:28.238Z,0.07
2018-02-07T10:41:28.205Z,0.1
2018-02-07T10:42:27.929Z,0.11
2018-02-07T10:43:28.498Z,0.11
2018-02-07T10:44:28.112Z,0.26
2018-02-07T10:45:28.156Z,0.26
2018-02-07T10:46:28.299Z,0.21
2018-02-07T10:47:27.762Z,0.21
2018-02-07T10:48:27.981Z,0.23
2018-02-07T10:49:27.943Z,0.22
2018-02-07T10:50:28.163Z,0.23
2018-02-07T10:51:27.888Z,0.22
2018-02-07T10:52:27.849Z,0.39
2018-02-07T10:53:28.064Z,0.32
2018-02-07T10:54:27.786Z,0.37
2018-02-07T10:55:27.838Z,0.32
2018-02-07T10:56:28.002Z,0.31
2018-02-07T10:57:27.445Z,0.43
2018-02-07T10:58:27.948Z,0.41
2018-02-07T10:59:27.627Z,0.44
2018-02-07T11:00:27.593Z,0.43
2018-02-07T11:01:27.566Z,0.4
2018-02-07T11:02:27.775Z,0.59
2018-02-07T11:03:27.746Z,0.52
2018-02-07T11:04:27.465Z,0.65
2018-02-07T11:05:27.437Z,0.47
2018-02-07T11:06:27.402Z,0.58
2018-02-07T11:07:27.379Z,0.56
2018-02-07T11:08:27.584Z,0.62
2018-02-07T11:09:27.311Z,0.68
2018-02-07T11:10:27.527Z,0.66
2018-02-07T11:11:27.344Z,0.68
2018-02-07T11:12:27.461Z,0.65
2018-02-07T11:13:27.429Z,0.76
2018-02-07T11:14:27.404Z,0.77
2018-02-07T11:15:27.368Z,0.68
2018-02-07T11:16:27.088Z,0.66
2018-02-07T11:17:27.055Z,0.83
2018-02-07T11:18:27.270Z,0.74
2018-02-07T11:19:26.996Z,0.78
2018-02-07T11:20:26.715Z,0.77
2018-02-07T11:21:27.179Z,0.78
2018-02-07T11:22:27.150Z,0.78
2018-02-07T11:23:26.869Z,0.74
2018-02-07T11:24:27.077Z,0.8
2018-02-07T11:25:26.559Z,0.7
2018-02-07T11:26:26.775Z,0.77
2018-02-07T11:27:26.986Z,0.78
2018-02-07T11:28:26.709Z,0.76
2018-02-07T11:29:26.931Z,0.78
2018-02-07T11:30:26.893Z,0.74
2018-02-07T11:31:26.868Z,0.69
2018-02-07T11:32:26.829Z,0.73
2018-02-07T11:33:26.796Z,0.8
2018-02-07T11:34:26.522Z,0.78
2018-02-07T11:35:26.609Z,0.78
2018-02-07T11:36:26.558Z,0.74
2018-02-07T11:37:26.672Z,0.76
2018-02-07T11:38:26.647Z,0.87
2018-02-07T11:39:26.607Z,0.91
2018-02-07T11:40:26.092Z,0.98
2018-02-07T11:41:26.301Z,1.08
2018-02-07T11:42:26.268Z,1.19
2018-02-07T11:43:26.483Z,1.24
2018-02-07T11:44:26.207Z,1.23
2018-02-07T11:45:26.176Z,1.34
2018-02-07T11:46:26.144Z,1.32
2018-02-07T11:47:26.363Z,1.37
2018-02-07T11:48:26.080Z,1.32
2018-02-07T11:49:25.808Z,1.45
2018-02-07T11:50:26.022Z,1.38
2018-02-07T11:51:25.991Z,1.49
2018-02-07T11:52:26.205Z,1.44
2018-02-07T11:53:25.877Z,1.48
2018-02-07T11:54:26.142Z,1.41
2018-02-07T11:55:26.111Z,1.42
2018-02-07T11:56:26.088Z,1.38
2018-02-07T11:57:25.565Z,1.44
2018-02-07T11:58:26.020Z,1.37
2018-02-07T11:59:25.994Z,1.38
2018-02-07T12:00:25.469Z,1.41
2018-02-07T12:01:25.933Z,1.34
2018-02-07T12:02:25.911Z,1.45
2018-02-07T12:03:25.919Z,1.41
2018-02-07T12:04:25.841Z,1.37
2018-02-07T12:05:25.318Z,1.32
2018-02-07T12:06:25.776Z,1.31
2018-02-07T12:07:25.499Z,1.41
2018-02-07T12:08:25.718Z,1.34
2018-02-07T12:09:25.439Z,1.2
2018-02-07T12:10:25.890Z,1.26
2018-02-07T12:11:25.625Z,1.28
2018-02-07T12:12:25.868Z,1.26
2018-02-07T12:13:25.317Z,1.34
2018-02-07T12:14:25.047Z,1.28
2018-02-07T12:15:25.503Z,1.28
2018-02-07T12:16:25.619Z,1.28
2018-02-07T12:17:25.440Z,1.24
2018-02-07T12:18:25.337Z,1.31
2018-02-07T12:19:25.554Z,1.4
2018-02-07T12:20:25.350Z,1.37
2018-02-07T12:21:25.320Z,1.35
2018-02-07T12:22:25.043Z,1.42
2018-02-07T12:23:25.254Z,1.35
2018-02-07T12:24:24.979Z,1.37
2018-02-07T12:25:25.198Z,1.38
2018-02-07T12:26:24.913Z,1.4
2018-02-07T12:27:24.890Z,1.35
2018-02-07T12:28:25.096Z,1.35
2018-02-07T12:29:25.070Z,1.49
2018-02-07T12:30:24.790Z,1.48
2018-02-07T12:31:24.760Z,1.53
2018-02-07T12:32:25.079Z,1.48
2018-02-07T12:33:24.949Z,1.48
2018-02-07T12:34:24.923Z,1.52
2018-02-07T12:35:24.396Z,1.48
2018-02-07T12:36:24.856Z,1.58
2018-02-07T12:37:24.821Z,1.49
2018-02-07T12:38:24.550Z,1.5
2018-02-07T12:39:24.763Z,1.53
2018-02-07T12:40:24.580Z,1.48
2018-02-07T12:41:24.698Z,1.5
2018-02-07T12:42:24.426Z,1.56
2018-02-07T12:43:24.640Z,1.6
2018-02-07T12:44:24.604Z,1.63
2018-02-07T12:45:24.574Z,1.73
2018-02-07T12:46:24.547Z,1.7
2018-02-07T12:47:24.844Z,1.76
2018-02-07T12:48:24.732Z,1.76
2018-02-07T12:49:24.455Z,1.73
2018-02-07T12:50:25.074Z,1.71
2018-02-07T12:51:24.396Z,1.71
2018-02-07T12:52:24.116Z,1.67
2018-02-07T12:53:24.334Z,1.78
2018-02-07T12:54:24.306Z,1.8
2018-02-07T12:55:24.034Z,1.88
2018-02-07T12:56:24.261Z,1.92
2018-02-07T12:57:24.209Z,1.97
2018-02-07T12:58:24.177Z,2.02
2018-02-07T12:59:24.148Z,1.92
2018-02-07T13:00:24.125Z,1.99